sensor_id;sensor_type;location;lat;lon;timestamp;temperature;humidity
78649;DHT22;67962;47.310;9.642;2024-02-23T00:01:04;10.10;69.70
78649;DHT22;67962;47.310;9.642;2024-02-23T00:03:30;10.10;70.10
78649;DHT22;67962;47.310;9.642;2024-02-23T00:05:57;10.00;69.00
78649;DHT22;67962;47.310;9.642;2024-02-23T00:08:22;10.00;68.50
78649;DHT22;67962;47.310;9.642;2024-02-23T00:10:48;10.00;69.60
78649;DHT22;67962;47.310;9.642;2024-02-23T00:13:14;10.10;68.80
78649;DHT22;67962;47.310;9.642;2024-02-23T00:15:39;10.10;67.90
78649;DHT22;67962;47.310;9.642;2024-02-23T00:18:05;10.00;68.00
78649;DHT22;67962;47.310;9.642;2024-02-23T00:20:32;9.90;69.10
78649;DHT22;67962;47.310;9.642;2024-02-23T00:22:58;9.90;69.70
78649;DHT22;67962;47.310;9.642;2024-02-23T00:25:23;9.90;69.70
78649;DHT22;67962;47.310;9.642;2024-02-23T00:27:49;10.00;69.30
78649;DHT22;67962;47.310;9.642;2024-02-23T00:30:15;10.00;68.50
78649;DHT22;67962;47.310;9.642;2024-02-23T00:32:41;10.00;68.70
78649;DHT22;67962;47.310;9.642;2024-02-23T00:35:07;9.90;69.20
78649;DHT22;67962;47.310;9.642;2024-02-23T00:37:32;10.00;69.60
78649;DHT22;67962;47.310;9.642;2024-02-23T00:40:04;9.90;68.60
78649;DHT22;67962;47.310;9.642;2024-02-23T00:42:31;10.00;69.00
78649;DHT22;67962;47.310;9.642;2024-02-23T00:44:56;10.00;68.30
78649;DHT22;67962;47.310;9.642;2024-02-23T00:47:22;10.00;66.80
78649;DHT22;67962;47.310;9.642;2024-02-23T00:49:48;9.90;67.30
78649;DHT22;67962;47.310;9.642;2024-02-23T00:52:14;9.90;67.20
78649;DHT22;67962;47.310;9.642;2024-02-23T00:54:40;9.90;67.80
78649;DHT22;67962;47.310;9.642;2024-02-23T00:57:06;9.90;67.10
78649;DHT22;67962;47.310;9.642;2024-02-23T00:59:31;9.90;64.80
78649;DHT22;67962;47.310;9.642;2024-02-23T01:01:57;9.90;65.00
78649;DHT22;67962;47.310;9.642;2024-02-23T01:04:23;9.90;65.00
78649;DHT22;67962;47.310;9.642;2024-02-23T01:06:49;10.00;65.50
78649;DHT22;67962;47.310;9.642;2024-02-23T01:09:14;10.10;65.70
78649;DHT22;67962;47.310;9.642;2024-02-23T01:11:42;10.10;65.90
78649;DHT22;67962;47.310;9.642;2024-02-23T01:14:08;10.20;65.20
78649;DHT22;67962;47.310;9.642;2024-02-23T01:16:33;10.20;65.20
78649;DHT22;67962;47.310;9.642;2024-02-23T01:18:59;10.10;65.00
78649;DHT22;67962;47.310;9.642;2024-02-23T01:21:25;10.20;64.90
78649;DHT22;67962;47.310;9.642;2024-02-23T01:23:50;10.10;63.90
78649;DHT22;67962;47.310;9.642;2024-02-23T01:26:16;10.10;64.00
78649;DHT22;67962;47.310;9.642;2024-02-23T01:28:41;10.10;64.00
78649;DHT22;67962;47.310;9.642;2024-02-23T01:31:11;10.20;64.20
78649;DHT22;67962;47.310;9.642;2024-02-23T01:33:37;10.20;61.50
78649;DHT22;67962;47.310;9.642;2024-02-23T01:36:07;10.20;61.10
78649;DHT22;67962;47.310;9.642;2024-02-23T01:38:33;10.30;60.10
78649;DHT22;67962;47.310;9.642;2024-02-23T01:41:00;10.30;61.10
78649;DHT22;67962;47.310;9.642;2024-02-23T01:43:25;10.30;61.20
78649;DHT22;67962;47.310;9.642;2024-02-23T01:45:51;10.30;62.10
78649;DHT22;67962;47.310;9.642;2024-02-23T01:48:18;10.30;61.80
78649;DHT22;67962;47.310;9.642;2024-02-23T01:50:44;10.30;62.80
78649;DHT22;67962;47.310;9.642;2024-02-23T01:53:11;10.30;62.60
78649;DHT22;67962;47.310;9.642;2024-02-23T01:55:40;10.30;63.00
78649;DHT22;67962;47.310;9.642;2024-02-23T01:58:06;10.30;64.30
78649;DHT22;67962;47.310;9.642;2024-02-23T02:00:33;10.30;60.40
78649;DHT22;67962;47.310;9.642;2024-02-23T02:02:59;10.40;56.30
78649;DHT22;67962;47.310;9.642;2024-02-23T02:05:25;10.40;57.30
78649;DHT22;67962;47.310;9.642;2024-02-23T02:07:53;10.30;58.60
78649;DHT22;67962;47.310;9.642;2024-02-23T02:10:24;10.30;59.00
78649;DHT22;67962;47.310;9.642;2024-02-23T02:12:50;10.20;56.40
78649;DHT22;67962;47.310;9.642;2024-02-23T02:15:15;10.20;53.90
78649;DHT22;67962;47.310;9.642;2024-02-23T02:17:41;10.20;55.40
78649;DHT22;67962;47.310;9.642;2024-02-23T02:20:11;10.20;55.90
78649;DHT22;67962;47.310;9.642;2024-02-23T02:22:38;10.20;55.10
78649;DHT22;67962;47.310;9.642;2024-02-23T02:25:04;10.20;55.50
78649;DHT22;67962;47.310;9.642;2024-02-23T02:27:29;10.20;55.40
78649;DHT22;67962;47.310;9.642;2024-02-23T02:29:55;10.20;54.70
78649;DHT22;67962;47.310;9.642;2024-02-23T02:32:21;10.20;55.40
78649;DHT22;67962;47.310;9.642;2024-02-23T02:34:47;10.10;56.80
78649;DHT22;67962;47.310;9.642;2024-02-23T02:37:12;10.10;57.20
78649;DHT22;67962;47.310;9.642;2024-02-23T02:39:38;10.10;56.70
78649;DHT22;67962;47.310;9.642;2024-02-23T02:42:04;10.10;57.50
78649;DHT22;67962;47.310;9.642;2024-02-23T02:44:29;10.10;58.60
78649;DHT22;67962;47.310;9.642;2024-02-23T02:46:57;10.10;58.10
78649;DHT22;67962;47.310;9.642;2024-02-23T02:49:23;10.10;58.30
78649;DHT22;67962;47.310;9.642;2024-02-23T02:51:49;10.10;58.30
78649;DHT22;67962;47.310;9.642;2024-02-23T02:54:15;10.00;58.20
78649;DHT22;67962;47.310;9.642;2024-02-23T02:56:48;10.10;58.40
78649;DHT22;67962;47.310;9.642;2024-02-23T02:59:15;10.00;58.30
78649;DHT22;67962;47.310;9.642;2024-02-23T03:01:42;10.00;58.70
78649;DHT22;67962;47.310;9.642;2024-02-23T03:04:08;9.80;59.40
78649;DHT22;67962;47.310;9.642;2024-02-23T03:06:34;9.70;60.50
78649;DHT22;67962;47.310;9.642;2024-02-23T03:08:59;9.60;59.70
78649;DHT22;67962;47.310;9.642;2024-02-23T03:11:25;9.60;59.60
78649;DHT22;67962;47.310;9.642;2024-02-23T03:13:51;9.50;59.90
78649;DHT22;67962;47.310;9.642;2024-02-23T03:16:17;9.50;59.40
78649;DHT22;67962;47.310;9.642;2024-02-23T03:18:43;9.60;58.70
78649;DHT22;67962;47.310;9.642;2024-02-23T03:21:09;9.60;59.00
78649;DHT22;67962;47.310;9.642;2024-02-23T03:23:35;9.50;59.00
78649;DHT22;67962;47.310;9.642;2024-02-23T03:26:01;9.50;59.50
78649;DHT22;67962;47.310;9.642;2024-02-23T03:28:28;9.50;58.40
78649;DHT22;67962;47.310;9.642;2024-02-23T03:30:54;9.50;58.10
78649;DHT22;67962;47.310;9.642;2024-02-23T03:33:19;9.50;58.30
78649;DHT22;67962;47.310;9.642;2024-02-23T03:35:45;9.50;59.80
78649;DHT22;67962;47.310;9.642;2024-02-23T03:38:11;9.30;59.50
78649;DHT22;67962;47.310;9.642;2024-02-23T03:40:36;9.20;60.70
78649;DHT22;67962;47.310;9.642;2024-02-23T03:43:03;9.20;60.50
78649;DHT22;67962;47.310;9.642;2024-02-23T03:45:28;9.20;60.10
78649;DHT22;67962;47.310;9.642;2024-02-23T03:47:54;9.20;60.30
78649;DHT22;67962;47.310;9.642;2024-02-23T03:50:20;9.20;60.60
78649;DHT22;67962;47.310;9.642;2024-02-23T03:52:46;9.20;61.70
78649;DHT22;67962;47.310;9.642;2024-02-23T03:55:11;9.00;62.40
78649;DHT22;67962;47.310;9.642;2024-02-23T03:57:37;9.00;62.10
78649;DHT22;67962;47.310;9.642;2024-02-23T04:00:03;8.90;62.80
78649;DHT22;67962;47.310;9.642;2024-02-23T04:02:29;8.90;64.30
78649;DHT22;67962;47.310;9.642;2024-02-23T04:04:55;8.80;65.10
78649;DHT22;67962;47.310;9.642;2024-02-23T04:07:21;8.70;66.20
78649;DHT22;67962;47.310;9.642;2024-02-23T04:09:47;8.60;66.90
78649;DHT22;67962;47.310;9.642;2024-02-23T04:12:18;8.50;67.50
78649;DHT22;67962;47.310;9.642;2024-02-23T04:14:45;8.30;67.60
78649;DHT22;67962;47.310;9.642;2024-02-23T04:17:11;8.30;68.00
78649;DHT22;67962;47.310;9.642;2024-02-23T04:19:42;8.30;67.80
78649;DHT22;67962;47.310;9.642;2024-02-23T04:22:09;8.40;68.10
78649;DHT22;67962;47.310;9.642;2024-02-23T04:24:37;8.40;68.50
78649;DHT22;67962;47.310;9.642;2024-02-23T04:27:04;8.50;67.40
78649;DHT22;67962;47.310;9.642;2024-02-23T04:29:30;8.50;67.50
78649;DHT22;67962;47.310;9.642;2024-02-23T04:31:55;8.70;68.10
78649;DHT22;67962;47.310;9.642;2024-02-23T04:34:21;8.70;68.20
78649;DHT22;67962;47.310;9.642;2024-02-23T04:36:46;8.70;67.10
78649;DHT22;67962;47.310;9.642;2024-02-23T04:39:12;8.70;67.60
78649;DHT22;67962;47.310;9.642;2024-02-23T04:41:38;8.60;67.80
78649;DHT22;67962;47.310;9.642;2024-02-23T04:44:03;8.70;67.90
78649;DHT22;67962;47.310;9.642;2024-02-23T04:46:31;8.80;67.80
78649;DHT22;67962;47.310;9.642;2024-02-23T04:48:57;9.00;67.70
78649;DHT22;67962;47.310;9.642;2024-02-23T04:51:22;9.00;67.40
78649;DHT22;67962;47.310;9.642;2024-02-23T04:53:49;9.10;66.90
78649;DHT22;67962;47.310;9.642;2024-02-23T04:56:15;9.10;67.10
78649;DHT22;67962;47.310;9.642;2024-02-23T04:58:41;9.00;68.40
78649;DHT22;67962;47.310;9.642;2024-02-23T05:01:09;8.90;69.50
78649;DHT22;67962;47.310;9.642;2024-02-23T05:03:36;8.80;69.70
78649;DHT22;67962;47.310;9.642;2024-02-23T05:06:02;8.70;70.20
78649;DHT22;67962;47.310;9.642;2024-02-23T05:08:28;8.70;70.60
78649;DHT22;67962;47.310;9.642;2024-02-23T05:10:58;8.60;70.70
78649;DHT22;67962;47.310;9.642;2024-02-23T05:13:24;8.50;71.00
78649;DHT22;67962;47.310;9.642;2024-02-23T05:15:50;8.40;70.80
78649;DHT22;67962;47.310;9.642;2024-02-23T05:18:15;8.50;71.00
78649;DHT22;67962;47.310;9.642;2024-02-23T05:20:41;8.50;71.10
78649;DHT22;67962;47.310;9.642;2024-02-23T05:23:07;8.50;71.40
78649;DHT22;67962;47.310;9.642;2024-02-23T05:25:33;8.40;71.30
78649;DHT22;67962;47.310;9.642;2024-02-23T05:27:59;8.40;71.50
78649;DHT22;67962;47.310;9.642;2024-02-23T05:30:24;8.30;72.00
78649;DHT22;67962;47.310;9.642;2024-02-23T05:32:52;8.30;72.30
78649;DHT22;67962;47.310;9.642;2024-02-23T05:35:18;8.30;72.80
78649;DHT22;67962;47.310;9.642;2024-02-23T05:37:44;8.30;72.50
78649;DHT22;67962;47.310;9.642;2024-02-23T05:40:10;8.30;72.90
78649;DHT22;67962;47.310;9.642;2024-02-23T05:42:38;8.20;72.60
78649;DHT22;67962;47.310;9.642;2024-02-23T05:45:05;8.20;71.60
78649;DHT22;67962;47.310;9.642;2024-02-23T05:47:40;8.00;69.60
78649;DHT22;67962;47.310;9.642;2024-02-23T05:50:08;8.00;72.00
78649;DHT22;67962;47.310;9.642;2024-02-23T05:52:37;7.90;71.50
78649;DHT22;67962;47.310;9.642;2024-02-23T05:55:03;7.90;69.20
78649;DHT22;67962;47.310;9.642;2024-02-23T05:57:29;8.00;67.20
78649;DHT22;67962;47.310;9.642;2024-02-23T05:59:55;7.90;66.20
78649;DHT22;67962;47.310;9.642;2024-02-23T06:02:24;7.90;66.10
78649;DHT22;67962;47.310;9.642;2024-02-23T06:04:50;7.90;64.70
78649;DHT22;67962;47.310;9.642;2024-02-23T06:07:16;7.70;66.80
78649;DHT22;67962;47.310;9.642;2024-02-23T06:09:43;7.60;67.40
78649;DHT22;67962;47.310;9.642;2024-02-23T06:12:08;7.70;66.80
78649;DHT22;67962;47.310;9.642;2024-02-23T06:14:35;7.70;64.40
78649;DHT22;67962;47.310;9.642;2024-02-23T06:17:01;7.70;65.70
78649;DHT22;67962;47.310;9.642;2024-02-23T06:19:27;7.60;66.50
78649;DHT22;67962;47.310;9.642;2024-02-23T06:21:52;7.70;64.90
78649;DHT22;67962;47.310;9.642;2024-02-23T06:24:18;7.60;65.30
78649;DHT22;67962;47.310;9.642;2024-02-23T06:26:45;7.70;65.20
78649;DHT22;67962;47.310;9.642;2024-02-23T06:29:13;7.70;65.20
78649;DHT22;67962;47.310;9.642;2024-02-23T06:31:39;7.70;65.90
78649;DHT22;67962;47.310;9.642;2024-02-23T06:34:05;7.80;65.20
78649;DHT22;67962;47.310;9.642;2024-02-23T06:36:31;7.80;65.80
78649;DHT22;67962;47.310;9.642;2024-02-23T06:38:57;7.80;66.90
78649;DHT22;67962;47.310;9.642;2024-02-23T06:41:23;7.90;67.90
78649;DHT22;67962;47.310;9.642;2024-02-23T06:43:48;7.90;68.70
78649;DHT22;67962;47.310;9.642;2024-02-23T06:46:14;7.90;68.70
78649;DHT22;67962;47.310;9.642;2024-02-23T06:48:40;7.90;68.90
78649;DHT22;67962;47.310;9.642;2024-02-23T06:51:06;8.00;68.60
78649;DHT22;67962;47.310;9.642;2024-02-23T06:53:35;8.00;69.10
78649;DHT22;67962;47.310;9.642;2024-02-23T06:56:01;8.00;69.50
78649;DHT22;67962;47.310;9.642;2024-02-23T06:58:27;8.00;69.60
78649;DHT22;67962;47.310;9.642;2024-02-23T07:00:53;8.10;69.90
78649;DHT22;67962;47.310;9.642;2024-02-23T07:03:19;8.00;70.90
78649;DHT22;67962;47.310;9.642;2024-02-23T07:05:45;8.00;71.30
78649;DHT22;67962;47.310;9.642;2024-02-23T07:08:11;7.90;71.50
78649;DHT22;67962;47.310;9.642;2024-02-23T07:10:37;8.00;71.80
78649;DHT22;67962;47.310;9.642;2024-02-23T07:13:03;8.00;71.70
78649;DHT22;67962;47.310;9.642;2024-02-23T07:15:29;8.00;72.10
78649;DHT22;67962;47.310;9.642;2024-02-23T07:17:55;8.00;71.70
78649;DHT22;67962;47.310;9.642;2024-02-23T07:20:22;8.00;71.40
78649;DHT22;67962;47.310;9.642;2024-02-23T07:22:48;8.10;71.30
78649;DHT22;67962;47.310;9.642;2024-02-23T07:25:17;8.10;71.80
78649;DHT22;67962;47.310;9.642;2024-02-23T07:27:44;8.10;71.90
78649;DHT22;67962;47.310;9.642;2024-02-23T07:30:11;8.10;71.50
78649;DHT22;67962;47.310;9.642;2024-02-23T07:32:37;8.10;71.40
78649;DHT22;67962;47.310;9.642;2024-02-23T07:35:03;8.10;72.20
78649;DHT22;67962;47.310;9.642;2024-02-23T07:37:29;8.10;72.20
78649;DHT22;67962;47.310;9.642;2024-02-23T07:39:55;8.20;72.00
78649;DHT22;67962;47.310;9.642;2024-02-23T07:42:21;8.30;71.60
78649;DHT22;67962;47.310;9.642;2024-02-23T07:44:46;8.30;70.90
78649;DHT22;67962;47.310;9.642;2024-02-23T07:47:12;8.30;71.00
78649;DHT22;67962;47.310;9.642;2024-02-23T07:49:38;8.30;71.00
78649;DHT22;67962;47.310;9.642;2024-02-23T07:52:06;8.40;70.80
78649;DHT22;67962;47.310;9.642;2024-02-23T07:54:32;8.30;70.90
78649;DHT22;67962;47.310;9.642;2024-02-23T07:56:58;8.30;71.50
78649;DHT22;67962;47.310;9.642;2024-02-23T07:59:24;8.20;71.60
78649;DHT22;67962;47.310;9.642;2024-02-23T08:01:50;8.30;72.00
78649;DHT22;67962;47.310;9.642;2024-02-23T08:04:15;8.30;72.30
78649;DHT22;67962;47.310;9.642;2024-02-23T08:06:42;8.20;72.50
78649;DHT22;67962;47.310;9.642;2024-02-23T08:09:08;8.30;72.50
78649;DHT22;67962;47.310;9.642;2024-02-23T08:11:34;8.20;72.30
78649;DHT22;67962;47.310;9.642;2024-02-23T08:14:00;8.20;72.20
78649;DHT22;67962;47.310;9.642;2024-02-23T08:16:28;8.20;72.20
78649;DHT22;67962;47.310;9.642;2024-02-23T08:18:54;8.30;71.60
78649;DHT22;67962;47.310;9.642;2024-02-23T08:21:19;8.20;71.50
78649;DHT22;67962;47.310;9.642;2024-02-23T08:23:45;8.10;71.70
78649;DHT22;67962;47.310;9.642;2024-02-23T08:26:11;8.10;72.00
78649;DHT22;67962;47.310;9.642;2024-02-23T08:28:37;8.30;71.60
78649;DHT22;67962;47.310;9.642;2024-02-23T08:31:02;8.30;71.30
78649;DHT22;67962;47.310;9.642;2024-02-23T08:33:28;8.40;71.10
78649;DHT22;67962;47.310;9.642;2024-02-23T08:35:54;8.50;70.70
78649;DHT22;67962;47.310;9.642;2024-02-23T08:38:20;8.50;69.70
78649;DHT22;67962;47.310;9.642;2024-02-23T08:40:45;8.50;70.10
78649;DHT22;67962;47.310;9.642;2024-02-23T08:43:11;8.60;70.10
78649;DHT22;67962;47.310;9.642;2024-02-23T08:45:37;8.70;69.90
78649;DHT22;67962;47.310;9.642;2024-02-23T08:48:03;8.70;69.30
78649;DHT22;67962;47.310;9.642;2024-02-23T08:50:29;8.80;68.90
78649;DHT22;67962;47.310;9.642;2024-02-23T08:52:55;8.80;67.50
78649;DHT22;67962;47.310;9.642;2024-02-23T08:55:21;8.60;68.70
78649;DHT22;67962;47.310;9.642;2024-02-23T08:57:47;8.60;69.10
78649;DHT22;67962;47.310;9.642;2024-02-23T09:00:13;8.60;68.80
78649;DHT22;67962;47.310;9.642;2024-02-23T09:02:40;8.60;68.70
78649;DHT22;67962;47.310;9.642;2024-02-23T09:05:08;8.60;69.30
78649;DHT22;67962;47.310;9.642;2024-02-23T09:07:34;8.50;69.50
78649;DHT22;67962;47.310;9.642;2024-02-23T09:10:00;8.50;69.50
78649;DHT22;67962;47.310;9.642;2024-02-23T09:12:25;8.40;69.70
78649;DHT22;67962;47.310;9.642;2024-02-23T09:14:51;8.40;69.90
78649;DHT22;67962;47.310;9.642;2024-02-23T09:17:17;8.40;70.20
78649;DHT22;67962;47.310;9.642;2024-02-23T09:19:46;8.40;70.50
78649;DHT22;67962;47.310;9.642;2024-02-23T09:22:12;8.40;70.70
78649;DHT22;67962;47.310;9.642;2024-02-23T09:24:41;8.30;71.10
78649;DHT22;67962;47.310;9.642;2024-02-23T09:27:06;8.40;70.80
78649;DHT22;67962;47.310;9.642;2024-02-23T09:29:35;8.40;70.40
78649;DHT22;67962;47.310;9.642;2024-02-23T09:32:00;8.40;70.20
78649;DHT22;67962;47.310;9.642;2024-02-23T09:34:26;8.40;70.60
78649;DHT22;67962;47.310;9.642;2024-02-23T09:36:52;8.50;70.60
78649;DHT22;67962;47.310;9.642;2024-02-23T09:39:18;8.50;69.70
78649;DHT22;67962;47.310;9.642;2024-02-23T09:41:45;8.50;69.20
78649;DHT22;67962;47.310;9.642;2024-02-23T09:44:15;8.50;68.60
78649;DHT22;67962;47.310;9.642;2024-02-23T09:46:43;8.40;68.90
78649;DHT22;67962;47.310;9.642;2024-02-23T09:49:11;8.40;69.10
78649;DHT22;67962;47.310;9.642;2024-02-23T09:51:38;8.50;69.40
78649;DHT22;67962;47.310;9.642;2024-02-23T09:54:04;8.50;69.00
78649;DHT22;67962;47.310;9.642;2024-02-23T09:56:30;8.60;69.10
78649;DHT22;67962;47.310;9.642;2024-02-23T09:58:58;8.50;69.60
78649;DHT22;67962;47.310;9.642;2024-02-23T10:01:27;8.40;70.00
78649;DHT22;67962;47.310;9.642;2024-02-23T10:04:03;8.40;70.60
78649;DHT22;67962;47.310;9.642;2024-02-23T10:06:30;8.40;70.90
78649;DHT22;67962;47.310;9.642;2024-02-23T10:08:56;8.40;70.30
78649;DHT22;67962;47.310;9.642;2024-02-23T10:11:22;8.50;70.20
78649;DHT22;67962;47.310;9.642;2024-02-23T10:13:48;8.50;70.40
78649;DHT22;67962;47.310;9.642;2024-02-23T10:16:18;8.50;70.40
78649;DHT22;67962;47.310;9.642;2024-02-23T10:18:49;8.50;70.60
78649;DHT22;67962;47.310;9.642;2024-02-23T10:21:17;8.60;70.30
78649;DHT22;67962;47.310;9.642;2024-02-23T10:23:47;8.50;70.10
78649;DHT22;67962;47.310;9.642;2024-02-23T10:26:13;8.60;70.40
78649;DHT22;67962;47.310;9.642;2024-02-23T10:28:45;8.60;70.40
78649;DHT22;67962;47.310;9.642;2024-02-23T10:31:11;8.60;70.10
78649;DHT22;67962;47.310;9.642;2024-02-23T10:33:38;8.60;70.00
78649;DHT22;67962;47.310;9.642;2024-02-23T10:36:05;8.60;69.70
78649;DHT22;67962;47.310;9.642;2024-02-23T10:38:37;8.70;70.00
78649;DHT22;67962;47.310;9.642;2024-02-23T10:41:05;8.80;70.00
78649;DHT22;67962;47.310;9.642;2024-02-23T10:43:47;8.90;69.20
78649;DHT22;67962;47.310;9.642;2024-02-23T10:46:13;8.90;69.30
78649;DHT22;67962;47.310;9.642;2024-02-23T10:48:43;8.90;69.40
78649;DHT22;67962;47.310;9.642;2024-02-23T10:51:11;8.90;70.30
78649;DHT22;67962;47.310;9.642;2024-02-23T10:53:41;8.90;68.90
78649;DHT22;67962;47.310;9.642;2024-02-23T10:56:09;8.90;69.20
78649;DHT22;67962;47.310;9.642;2024-02-23T10:58:35;8.80;69.30
78649;DHT22;67962;47.310;9.642;2024-02-23T11:01:03;8.90;69.40
78649;DHT22;67962;47.310;9.642;2024-02-23T11:03:35;9.00;69.30
78649;DHT22;67962;47.310;9.642;2024-02-23T11:06:02;9.00;69.00
78649;DHT22;67962;47.310;9.642;2024-02-23T11:08:29;9.00;69.20
78649;DHT22;67962;47.310;9.642;2024-02-23T11:10:55;9.00;69.00
78649;DHT22;67962;47.310;9.642;2024-02-23T11:13:30;9.10;69.40
78649;DHT22;67962;47.310;9.642;2024-02-23T11:16:06;9.10;69.10
78649;DHT22;67962;47.310;9.642;2024-02-23T11:18:36;9.20;68.60
78649;DHT22;67962;47.310;9.642;2024-02-23T11:21:04;9.10;68.40
78649;DHT22;67962;47.310;9.642;2024-02-23T11:23:52;9.10;69.10
78649;DHT22;67962;47.310;9.642;2024-02-23T11:26:18;9.10;68.30
78649;DHT22;67962;47.310;9.642;2024-02-23T11:28:48;9.10;68.70
78649;DHT22;67962;47.310;9.642;2024-02-23T11:31:15;9.20;68.30
78649;DHT22;67962;47.310;9.642;2024-02-23T11:33:48;9.40;68.00
78649;DHT22;67962;47.310;9.642;2024-02-23T11:36:34;9.40;67.50
78649;DHT22;67962;47.310;9.642;2024-02-23T11:39:01;9.40;67.70
78649;DHT22;67962;47.310;9.642;2024-02-23T11:41:28;9.30;67.60
78649;DHT22;67962;47.310;9.642;2024-02-23T11:43:55;9.30;68.00
78649;DHT22;67962;47.310;9.642;2024-02-23T11:46:21;9.40;67.70
78649;DHT22;67962;47.310;9.642;2024-02-23T11:48:48;9.50;67.80
78649;DHT22;67962;47.310;9.642;2024-02-23T11:51:23;9.50;67.40
78649;DHT22;67962;47.310;9.642;2024-02-23T11:53:49;9.50;67.50
78649;DHT22;67962;47.310;9.642;2024-02-23T11:56:15;9.40;67.00
78649;DHT22;67962;47.310;9.642;2024-02-23T11:58:42;9.30;67.00
78649;DHT22;67962;47.310;9.642;2024-02-23T12:01:08;9.20;67.40
78649;DHT22;67962;47.310;9.642;2024-02-23T12:03:34;9.20;67.70
78649;DHT22;67962;47.310;9.642;2024-02-23T12:06:00;9.30;68.00
78649;DHT22;67962;47.310;9.642;2024-02-23T12:08:27;9.40;67.80
78649;DHT22;67962;47.310;9.642;2024-02-23T12:10:57;9.50;67.20
78649;DHT22;67962;47.310;9.642;2024-02-23T12:13:29;9.50;66.80
78649;DHT22;67962;47.310;9.642;2024-02-23T12:15:55;9.40;66.70
78649;DHT22;67962;47.310;9.642;2024-02-23T12:18:22;9.50;67.10
78649;DHT22;67962;47.310;9.642;2024-02-23T12:21:00;9.50;66.70
78649;DHT22;67962;47.310;9.642;2024-02-23T12:23:49;9.50;67.10
78649;DHT22;67962;47.310;9.642;2024-02-23T12:26:17;9.50;66.60
78649;DHT22;67962;47.310;9.642;2024-02-23T12:28:43;9.40;66.30
78649;DHT22;67962;47.310;9.642;2024-02-23T12:31:09;9.40;66.20
78649;DHT22;67962;47.310;9.642;2024-02-23T12:33:37;9.30;66.30
78649;DHT22;67962;47.310;9.642;2024-02-23T12:36:04;9.30;66.80
78649;DHT22;67962;47.310;9.642;2024-02-23T12:38:30;9.30;66.90
78649;DHT22;67962;47.310;9.642;2024-02-23T12:40:56;9.30;67.40
78649;DHT22;67962;47.310;9.642;2024-02-23T12:43:22;9.40;66.60
78649;DHT22;67962;47.310;9.642;2024-02-23T12:45:53;9.40;66.40
78649;DHT22;67962;47.310;9.642;2024-02-23T12:48:21;9.40;66.80
78649;DHT22;67962;47.310;9.642;2024-02-23T12:50:47;9.50;66.50
78649;DHT22;67962;47.310;9.642;2024-02-23T12:56:02;9.60;65.90
78649;DHT22;67962;47.310;9.642;2024-02-23T12:58:28;9.60;65.40
78649;DHT22;67962;47.310;9.642;2024-02-23T13:00:54;9.70;65.30
78649;DHT22;67962;47.310;9.642;2024-02-23T13:03:20;9.70;64.80
78649;DHT22;67962;47.310;9.642;2024-02-23T13:05:46;9.70;64.30
78649;DHT22;67962;47.310;9.642;2024-02-23T13:08:12;9.60;63.90
78649;DHT22;67962;47.310;9.642;2024-02-23T13:10:38;9.60;64.40
78649;DHT22;67962;47.310;9.642;2024-02-23T13:13:03;9.60;64.10
78649;DHT22;67962;47.310;9.642;2024-02-23T13:15:29;9.60;64.30
78649;DHT22;67962;47.310;9.642;2024-02-23T13:17:55;9.60;64.40
78649;DHT22;67962;47.310;9.642;2024-02-23T13:20:22;9.70;64.10
78649;DHT22;67962;47.310;9.642;2024-02-23T13:22:48;9.60;64.10
78649;DHT22;67962;47.310;9.642;2024-02-23T13:25:14;9.60;64.20
78649;DHT22;67962;47.310;9.642;2024-02-23T13:27:40;9.60;64.20
78649;DHT22;67962;47.310;9.642;2024-02-23T13:30:06;9.60;64.40
78649;DHT22;67962;47.310;9.642;2024-02-23T13:32:32;9.60;64.20
78649;DHT22;67962;47.310;9.642;2024-02-23T13:34:58;9.60;64.60
78649;DHT22;67962;47.310;9.642;2024-02-23T13:37:24;9.80;64.40
78649;DHT22;67962;47.310;9.642;2024-02-23T13:39:51;9.90;64.30
78649;DHT22;67962;47.310;9.642;2024-02-23T13:42:17;9.80;64.30
78649;DHT22;67962;47.310;9.642;2024-02-23T13:44:42;9.80;64.50
78649;DHT22;67962;47.310;9.642;2024-02-23T13:47:09;9.90;64.50
78649;DHT22;67962;47.310;9.642;2024-02-23T13:49:36;9.90;64.40
78649;DHT22;67962;47.310;9.642;2024-02-23T13:52:02;10.00;64.50
78649;DHT22;67962;47.310;9.642;2024-02-23T13:54:28;10.10;64.10
78649;DHT22;67962;47.310;9.642;2024-02-23T13:56:53;10.10;64.40
78649;DHT22;67962;47.310;9.642;2024-02-23T13:59:19;10.20;63.70
78649;DHT22;67962;47.310;9.642;2024-02-23T14:01:45;10.10;63.50
78649;DHT22;67962;47.310;9.642;2024-02-23T14:04:10;10.20;63.40
78649;DHT22;67962;47.310;9.642;2024-02-23T14:06:36;10.10;63.30
78649;DHT22;67962;47.310;9.642;2024-02-23T14:09:02;10.00;63.00
78649;DHT22;67962;47.310;9.642;2024-02-23T14:11:29;9.90;63.70
78649;DHT22;67962;47.310;9.642;2024-02-23T14:13:56;9.90;63.90
78649;DHT22;67962;47.310;9.642;2024-02-23T14:16:22;9.90;63.80
78649;DHT22;67962;47.310;9.642;2024-02-23T14:18:49;9.80;65.10
78649;DHT22;67962;47.310;9.642;2024-02-23T14:21:15;9.80;64.00
78649;DHT22;67962;47.310;9.642;2024-02-23T14:23:42;9.80;63.80
78649;DHT22;67962;47.310;9.642;2024-02-23T14:26:08;9.80;63.30
78649;DHT22;67962;47.310;9.642;2024-02-23T14:28:34;9.70;62.60
78649;DHT22;67962;47.310;9.642;2024-02-23T14:30:59;9.70;63.30
78649;DHT22;67962;47.310;9.642;2024-02-23T14:33:25;9.90;63.60
78649;DHT22;67962;47.310;9.642;2024-02-23T14:35:51;10.00;63.50
78649;DHT22;67962;47.310;9.642;2024-02-23T14:38:17;10.10;63.20
78649;DHT22;67962;47.310;9.642;2024-02-23T14:40:43;10.10;63.00
78649;DHT22;67962;47.310;9.642;2024-02-23T14:43:08;10.20;62.60
78649;DHT22;67962;47.310;9.642;2024-02-23T14:45:35;10.20;62.90
78649;DHT22;67962;47.310;9.642;2024-02-23T14:48:01;10.20;62.30
78649;DHT22;67962;47.310;9.642;2024-02-23T14:50:27;10.10;62.10
78649;DHT22;67962;47.310;9.642;2024-02-23T14:52:53;9.90;62.20
78649;DHT22;67962;47.310;9.642;2024-02-23T14:55:19;9.80;62.50
78649;DHT22;67962;47.310;9.642;2024-02-23T14:57:45;9.80;62.30
78649;DHT22;67962;47.310;9.642;2024-02-23T15:00:11;9.80;62.30
78649;DHT22;67962;47.310;9.642;2024-02-23T15:02:38;9.80;61.60
78649;DHT22;67962;47.310;9.642;2024-02-23T15:05:05;9.70;62.20
78649;DHT22;67962;47.310;9.642;2024-02-23T15:07:32;9.60;62.60
78649;DHT22;67962;47.310;9.642;2024-02-23T15:09:57;9.70;62.20
78649;DHT22;67962;47.310;9.642;2024-02-23T15:12:23;9.60;62.40
78649;DHT22;67962;47.310;9.642;2024-02-23T15:14:53;9.50;62.60
78649;DHT22;67962;47.310;9.642;2024-02-23T15:17:19;9.50;62.90
78649;DHT22;67962;47.310;9.642;2024-02-23T15:19:44;9.50;62.70
78649;DHT22;67962;47.310;9.642;2024-02-23T15:22:10;9.60;62.60
78649;DHT22;67962;47.310;9.642;2024-02-23T15:24:40;9.60;62.40
78649;DHT22;67962;47.310;9.642;2024-02-23T15:27:08;9.60;62.40
78649;DHT22;67962;47.310;9.642;2024-02-23T15:29:34;9.50;62.10
78649;DHT22;67962;47.310;9.642;2024-02-23T15:32:00;9.40;62.30
78649;DHT22;67962;47.310;9.642;2024-02-23T15:34:26;9.30;61.80
78649;DHT22;67962;47.310;9.642;2024-02-23T15:36:52;9.20;62.30
78649;DHT22;67962;47.310;9.642;2024-02-23T15:39:17;9.20;62.80
78649;DHT22;67962;47.310;9.642;2024-02-23T15:41:43;9.30;62.70